createdAt,value
2018-06-05T00:00:21.032Z,14.37
2018-06-05T00:02:48.886Z,13.47
2018-06-05T00:05:17.135Z,13.93
2018-06-05T00:07:45.154Z,13.70
2018-06-05T00:10:12.991Z,14.93
2018-06-05T00:12:40.808Z,13.90
2018-06-05T00:15:08.639Z,13.70
2018-06-05T00:17:36.457Z,15.40
2018-06-05T00:20:04.567Z,14.80
2018-06-05T00:22:32.406Z,17.33
2018-06-05T00:25:00.231Z,15.87
2018-06-05T00:27:28.068Z,17.10
2018-06-05T00:29:55.906Z,15.07
2018-06-05T00:32:23.718Z,15.30
2018-06-05T00:34:51.552Z,16.43
2018-06-05T00:37:19.362Z,16.50
2018-06-05T00:39:47.194Z,18.03
2018-06-05T00:42:15.034Z,15.40
2018-06-05T00:44:42.870Z,15.17
2018-06-05T00:47:10.703Z,16.20
2018-06-05T00:49:38.536Z,15.17
2018-06-05T00:52:07.115Z,14.60
2018-06-05T00:54:34.922Z,16.50
2018-06-05T00:57:02.742Z,17.50
2018-06-05T00:59:30.550Z,15.53
2018-06-05T01:01:58.387Z,17.70
2018-06-05T01:04:26.200Z,17.10
2018-06-05T01:06:54.047Z,17.20
2018-06-05T01:09:21.857Z,17.80
2018-06-05T01:11:49.666Z,16.60
2018-06-05T01:14:17.496Z,17.40
2018-06-05T01:16:45.308Z,18.07
2018-06-05T01:19:13.142Z,16.80
2018-06-05T01:21:40.970Z,18.33
2018-06-05T01:24:08.801Z,17.90
2018-06-05T01:26:36.599Z,17.70
2018-06-05T01:29:04.475Z,17.70
2018-06-05T01:31:32.283Z,20.10
2018-06-05T01:34:00.082Z,19.50
2018-06-05T01:36:27.911Z,19.57
2018-06-05T01:38:55.750Z,17.93
2018-06-05T01:41:23.585Z,18.80
2018-06-05T01:43:51.410Z,18.97
2018-06-05T01:46:19.239Z,22.20
2018-06-05T01:48:47.050Z,21.27
2018-06-05T01:51:14.886Z,18.33
2018-06-05T01:53:42.697Z,19.73
2018-06-05T01:56:10.550Z,21.27
2018-06-05T01:58:38.373Z,22.93
2018-06-05T02:01:06.183Z,22.13
2018-06-05T02:03:34.006Z,21.37
2018-06-05T02:06:01.829Z,21.40
2018-06-05T02:08:29.664Z,21.20
2018-06-05T02:10:57.470Z,24.53
2018-06-05T02:13:25.270Z,22.83
2018-06-05T02:15:53.125Z,23.37
2018-06-05T02:18:20.918Z,23.90
2018-06-05T02:20:48.755Z,24.50
2018-06-05T02:23:16.613Z,22.83
2018-06-05T02:25:44.444Z,24.37
2018-06-05T02:28:12.250Z,22.77
2018-06-05T02:30:40.072Z,25.23
2018-06-05T02:33:07.927Z,21.67
2018-06-05T02:35:35.734Z,22.10
2018-06-05T02:38:03.531Z,23.73
2018-06-05T02:40:31.363Z,21.63
2018-06-05T02:42:59.172Z,24.10
2018-06-05T02:45:27.012Z,22.30
2018-06-05T02:47:54.804Z,20.60
2018-06-05T02:50:22.647Z,23.33
2018-06-05T02:52:50.439Z,21.77
2018-06-05T02:55:18.274Z,21.73
2018-06-05T02:57:46.067Z,26.40
2018-06-05T03:00:13.942Z,22.30
2018-06-05T03:02:41.737Z,28.00
2018-06-05T03:05:09.547Z,23.07
2018-06-05T03:07:37.384Z,24.97
2018-06-05T03:10:05.226Z,23.40
2018-06-05T03:12:33.046Z,30.50
2018-06-05T03:15:00.855Z,22.03
2018-06-05T03:17:28.684Z,25.60
2018-06-05T03:19:56.488Z,24.80
2018-06-05T03:22:24.330Z,26.27
2018-06-05T03:24:52.156Z,24.20
2018-06-05T03:27:20.007Z,26.37
2018-06-05T03:29:47.810Z,25.53
2018-06-05T03:32:15.615Z,26.43
2018-06-05T03:34:43.453Z,25.27
2018-06-05T03:37:11.259Z,31.67
2018-06-05T03:39:39.093Z,29.27
2018-06-05T03:42:06.932Z,27.37
2018-06-05T03:44:34.737Z,28.60
2018-06-05T03:47:02.569Z,31.23
2018-06-05T03:49:34.686Z,29.50
2018-06-05T03:52:02.522Z,25.13
2018-06-05T03:54:30.319Z,31.07
2018-06-05T03:56:58.162Z,32.10
2018-06-05T03:59:25.957Z,29.03
2018-06-05T04:01:53.785Z,26.73
2018-06-05T04:04:21.626Z,30.50
2018-06-05T04:06:49.465Z,26.13
2018-06-05T04:09:17.278Z,27.90
2018-06-05T04:11:45.080Z,27.27
2018-06-05T04:14:12.918Z,29.03
2018-06-05T04:16:40.746Z,29.93
2018-06-05T04:19:08.594Z,27.53
2018-06-05T04:21:36.407Z,26.97
2018-06-05T04:24:04.255Z,26.67
2018-06-05T04:26:32.053Z,26.97
2018-06-05T04:28:59.850Z,24.30
2018-06-05T04:31:27.683Z,22.17
2018-06-05T04:33:55.485Z,24.73
2018-06-05T04:36:23.314Z,24.40
2018-06-05T04:38:51.151Z,27.37
2018-06-05T04:41:18.950Z,27.37
2018-06-05T04:43:46.804Z,29.10
2018-06-05T04:46:14.632Z,24.10
2018-06-05T04:48:42.454Z,26.40
2018-06-05T04:51:10.261Z,26.30
2018-06-05T04:53:38.138Z,23.53
2018-06-05T04:56:05.990Z,30.63
2018-06-05T04:58:33.806Z,26.07
2018-06-05T05:01:01.626Z,28.50
2018-06-05T05:03:29.446Z,28.93
2018-06-05T05:05:57.270Z,27.83
2018-06-05T05:08:25.082Z,32.00
2018-06-05T05:10:52.923Z,27.53
2018-06-05T05:13:20.760Z,29.43
2018-06-05T05:15:48.855Z,28.40
2018-06-05T05:18:16.687Z,26.70
2018-06-05T05:20:44.553Z,28.50
2018-06-05T05:23:12.397Z,28.23
2018-06-05T05:25:40.210Z,29.17
2018-06-05T05:28:08.068Z,30.10
2018-06-05T05:30:35.883Z,29.57
2018-06-05T05:33:03.724Z,31.57
2018-06-05T05:35:31.535Z,30.17
2018-06-05T05:38:06.207Z,32.00
2018-06-05T05:40:34.054Z,29.10
2018-06-05T05:43:01.863Z,29.23
2018-06-05T05:45:29.686Z,30.83
2018-06-05T05:47:57.529Z,27.70
2018-06-05T05:50:25.383Z,29.60
2018-06-05T05:52:53.222Z,30.17
2018-06-05T05:55:21.031Z,28.00
2018-06-05T05:57:48.888Z,30.30
2018-06-05T06:00:16.732Z,30.97
2018-06-05T06:02:44.569Z,27.10
2018-06-05T06:05:12.487Z,28.80
2018-06-05T06:07:40.318Z,30.03
2018-06-05T06:10:08.158Z,28.97
2018-06-05T06:12:36.005Z,26.90
2018-06-05T06:15:03.841Z,28.17
2018-06-05T06:17:31.655Z,27.93
2018-06-05T06:19:59.516Z,29.13
2018-06-05T06:22:27.336Z,26.90
2018-06-05T06:24:55.164Z,27.90
2018-06-05T06:27:22.984Z,27.80
2018-06-05T06:29:50.974Z,28.20
2018-06-05T06:32:18.960Z,28.20
2018-06-05T06:34:46.774Z,23.27
2018-06-05T06:37:14.592Z,24.83
2018-06-05T06:39:42.434Z,26.30
2018-06-05T06:42:10.276Z,28.50
2018-06-05T06:44:38.188Z,27.33
2018-06-05T06:47:06.003Z,27.37
2018-06-05T06:49:33.842Z,24.93
2018-06-05T06:52:01.676Z,28.27
2018-06-05T06:54:29.521Z,24.80
2018-06-05T06:56:57.399Z,25.67
2018-06-05T06:59:25.217Z,26.47
2018-06-05T07:01:53.032Z,25.30
2018-06-05T07:04:20.882Z,30.33
2018-06-05T07:06:48.691Z,30.20
2018-06-05T07:09:16.524Z,28.20
2018-06-05T07:11:44.363Z,29.17
2018-06-05T07:14:12.214Z,29.90
2018-06-05T07:16:40.028Z,31.93
2018-06-05T07:19:07.834Z,30.20
2018-06-05T07:21:35.679Z,27.10
2018-06-05T07:24:03.504Z,29.80
2018-06-05T07:26:31.350Z,30.33
2018-06-05T07:28:59.211Z,32.37
2018-06-05T07:31:27.046Z,26.67
2018-06-05T07:33:54.869Z,28.83
2018-06-05T07:36:22.717Z,31.13
2018-06-05T07:38:50.526Z,26.53
2018-06-05T07:41:18.344Z,28.70
2018-06-05T07:43:46.195Z,27.60
2018-06-05T07:46:14.022Z,28.73
2018-06-05T07:48:41.872Z,31.60
2018-06-05T07:51:09.711Z,27.43
2018-06-05T07:53:37.527Z,28.73
2018-06-05T07:56:05.367Z,28.73
2018-06-05T07:58:33.184Z,27.40
2018-06-05T08:01:01.018Z,30.50
2018-06-05T08:03:28.825Z,27.03
2018-06-05T08:05:56.664Z,28.67
2018-06-05T08:08:24.487Z,26.93
2018-06-05T08:10:52.595Z,25.13
2018-06-05T08:13:20.412Z,26.10
2018-06-05T08:15:48.243Z,27.00
2018-06-05T08:18:16.052Z,24.20
2018-06-05T08:20:43.898Z,27.80
2018-06-05T08:23:11.723Z,28.30
2018-06-05T08:25:39.545Z,28.83
2018-06-05T08:28:07.386Z,26.10
2018-06-05T08:30:35.214Z,29.60
2018-06-05T08:33:03.043Z,27.40
2018-06-05T08:35:30.894Z,25.23
2018-06-05T08:37:58.711Z,27.03
2018-06-05T08:40:26.529Z,28.60
2018-06-05T08:42:54.379Z,29.83
2018-06-05T08:45:22.233Z,26.27
2018-06-05T08:47:50.047Z,26.50
2018-06-05T08:50:17.899Z,26.00
2018-06-05T08:52:45.721Z,25.33
2018-06-05T08:55:13.533Z,25.27
2018-06-05T08:57:41.374Z,24.00
2018-06-05T09:00:09.192Z,24.63
2018-06-05T09:02:37.027Z,25.67
2018-06-05T09:05:05.060Z,23.90
2018-06-05T09:07:32.875Z,22.53
2018-06-05T09:10:00.714Z,26.83
2018-06-05T09:12:28.555Z,27.97
2018-06-05T09:14:56.391Z,25.13
2018-06-05T09:17:24.218Z,22.67
2018-06-05T09:19:52.060Z,22.30
2018-06-05T09:22:19.872Z,22.40
2018-06-05T09:24:47.710Z,21.80
2018-06-05T09:27:15.670Z,19.97
2018-06-05T09:29:43.480Z,23.03
2018-06-05T09:32:11.299Z,22.33
2018-06-05T09:34:39.135Z,23.13
2018-06-05T09:37:07.011Z,20.37
2018-06-05T09:39:34.889Z,19.03
2018-06-05T09:42:02.684Z,17.93
2018-06-05T09:44:37.253Z,18.03
2018-06-05T09:47:05.105Z,18.77
2018-06-05T09:49:32.911Z,18.53
2018-06-05T09:52:00.736Z,18.60
2018-06-05T09:54:28.574Z,17.70
2018-06-05T09:56:56.396Z,16.03
2018-06-05T09:59:24.207Z,17.47
2018-06-05T10:01:52.042Z,15.87
2018-06-05T10:04:19.854Z,14.97
2018-06-05T10:06:47.694Z,15.20
2018-06-05T10:09:15.507Z,18.10
2018-06-05T10:11:43.323Z,15.87
2018-06-05T10:14:11.216Z,15.80
2018-06-05T10:16:38.962Z,15.67
2018-06-05T10:19:06.795Z,15.13
2018-06-05T10:21:34.625Z,14.20
2018-06-05T10:24:02.464Z,14.87
2018-06-05T10:26:30.331Z,14.37
2018-06-05T10:28:58.179Z,15.43
2018-06-05T10:31:26.002Z,15.57
2018-06-05T10:33:53.839Z,13.07
2018-06-05T10:36:21.655Z,13.17
2018-06-05T10:38:49.494Z,13.00
2018-06-05T10:41:17.318Z,11.60
2018-06-05T10:43:45.255Z,15.00
2018-06-05T10:46:13.070Z,13.90
2018-06-05T10:48:40.880Z,14.80
2018-06-05T10:51:08.730Z,11.93
2018-06-05T10:53:36.584Z,12.50
2018-06-05T10:56:04.411Z,11.93
2018-06-05T10:58:32.231Z,13.07
2018-06-05T11:01:00.147Z,11.43
2018-06-05T11:03:28.024Z,12.20
2018-06-05T11:05:55.850Z,12.53
2018-06-05T11:08:23.677Z,12.37
2018-06-05T11:10:51.511Z,11.63
2018-06-05T11:13:19.332Z,11.40
2018-06-05T11:15:47.170Z,12.60
2018-06-05T11:18:15.023Z,11.40
2018-06-05T11:20:42.842Z,10.77
2018-06-05T11:23:10.662Z,11.77
2018-06-05T11:25:38.495Z,10.37
2018-06-05T11:28:06.330Z,9.30
2018-06-05T11:30:34.167Z,10.13
2018-06-05T11:33:02.008Z,11.00
2018-06-05T11:35:29.837Z,9.60
2018-06-05T11:37:57.662Z,8.80
2018-06-05T11:40:25.470Z,9.70
2018-06-05T11:42:53.294Z,9.60
2018-06-05T11:45:21.114Z,9.87
2018-06-05T11:47:48.947Z,9.57
2018-06-05T11:50:16.786Z,9.50
2018-06-05T11:52:44.644Z,9.93
2018-06-05T11:55:12.454Z,9.10
2018-06-05T11:57:40.283Z,9.90
2018-06-05T12:00:08.140Z,8.90
2018-06-05T12:02:35.955Z,10.50
2018-06-05T12:05:03.783Z,9.60
2018-06-05T12:07:31.618Z,8.50
2018-06-05T12:09:59.427Z,8.70
2018-06-05T12:12:27.255Z,9.23
2018-06-05T12:14:55.079Z,8.87
2018-06-05T12:17:22.959Z,9.40
2018-06-05T12:19:50.768Z,8.37
2018-06-05T12:22:18.607Z,8.70
2018-06-05T12:24:46.458Z,10.13
2018-06-05T12:27:14.283Z,10.13
2018-06-05T12:29:42.115Z,7.77
2018-06-05T12:32:09.953Z,8.70
2018-06-05T12:34:37.783Z,8.73
2018-06-05T12:37:05.722Z,7.90
2018-06-05T12:39:33.548Z,8.20
2018-06-05T12:42:01.960Z,7.93
2018-06-05T12:44:29.851Z,6.77
2018-06-05T12:46:57.683Z,7.27
2018-06-05T12:49:25.515Z,8.30
2018-06-05T12:51:53.338Z,7.90
2018-06-05T12:54:21.143Z,7.90
2018-06-05T12:56:48.977Z,7.03
2018-06-05T12:59:16.780Z,7.23
2018-06-05T13:01:44.603Z,7.87
2018-06-05T13:04:12.429Z,6.67
2018-06-05T13:06:46.187Z,6.30
2018-06-05T13:09:14.003Z,6.30
2018-06-05T13:11:41.847Z,7.50
2018-06-05T13:14:10.491Z,7.00
2018-06-05T13:16:38.335Z,6.80
2018-06-05T13:19:06.130Z,7.37
2018-06-05T13:21:33.935Z,6.13
2018-06-05T13:24:01.763Z,7.30
2018-06-05T13:26:29.628Z,7.90
2018-06-05T13:28:57.419Z,6.50
2018-06-05T13:31:25.255Z,6.53
2018-06-05T13:33:53.091Z,6.67
2018-06-05T13:36:20.923Z,6.50
2018-06-05T13:38:48.757Z,7.60
2018-06-05T13:41:16.564Z,7.87
2018-06-05T13:43:44.428Z,7.10
2018-06-05T13:46:12.208Z,7.33
2018-06-05T13:48:40.036Z,7.37
2018-06-05T13:51:07.840Z,7.10
2018-06-05T13:53:35.664Z,7.43
2018-06-05T13:56:03.475Z,8.03
2018-06-05T13:58:31.306Z,7.57
2018-06-05T14:00:59.114Z,7.80
2018-06-05T14:03:26.910Z,7.30
2018-06-05T14:05:54.738Z,7.90
2018-06-05T14:08:22.563Z,8.27
2018-06-05T14:10:51.407Z,7.23
2018-06-05T14:13:19.238Z,8.10
2018-06-05T14:15:47.037Z,7.30
2018-06-05T14:18:14.840Z,8.73
2018-06-05T14:20:42.704Z,7.43
2018-06-05T14:23:10.471Z,7.10
2018-06-05T14:25:38.312Z,7.30
2018-06-05T14:28:06.155Z,7.30
2018-06-05T14:30:33.963Z,7.37
2018-06-05T14:33:01.799Z,7.60
2018-06-05T14:35:29.625Z,7.67
2018-06-05T14:37:57.420Z,8.03
2018-06-05T14:40:25.259Z,7.80
2018-06-05T14:42:53.061Z,7.93
2018-06-05T14:45:20.982Z,7.40
2018-06-05T14:47:48.688Z,8.50
2018-06-05T14:50:16.521Z,7.43
2018-06-05T14:52:44.326Z,7.20
2018-06-05T14:55:12.126Z,7.60
2018-06-05T14:57:39.951Z,7.00
2018-06-05T15:00:07.750Z,7.77
2018-06-05T15:02:35.592Z,7.00
2018-06-05T15:05:03.467Z,6.10
2018-06-05T15:07:31.268Z,6.57
2018-06-05T15:09:59.092Z,6.47
2018-06-05T15:12:26.923Z,6.17
2018-06-05T15:14:54.719Z,6.97
2018-06-05T15:17:22.550Z,7.20
2018-06-05T15:19:50.387Z,6.83
2018-06-05T15:22:18.200Z,6.60
2018-06-05T15:24:46.014Z,6.40
2018-06-05T15:27:13.875Z,5.83
2018-06-05T15:29:41.682Z,5.33
2018-06-05T15:32:09.499Z,6.13
2018-06-05T15:34:37.334Z,5.60
2018-06-05T15:37:05.131Z,6.40
2018-06-05T15:39:32.936Z,5.67
2018-06-05T15:42:00.767Z,5.93
2018-06-05T15:44:28.595Z,6.27
2018-06-05T15:46:56.439Z,6.53
2018-06-05T15:49:24.249Z,5.90
2018-06-05T15:51:52.074Z,5.80
2018-06-05T15:54:19.899Z,5.80
2018-06-05T15:56:47.734Z,6.57
2018-06-05T15:59:15.527Z,5.53
2018-06-05T16:01:43.354Z,5.93
2018-06-05T16:04:11.169Z,5.63
2018-06-05T16:06:38.992Z,5.53
2018-06-05T16:09:07.729Z,6.30
2018-06-05T16:11:35.558Z,6.40
2018-06-05T16:14:03.402Z,5.50
2018-06-05T16:16:31.214Z,7.07
2018-06-05T16:18:59.042Z,6.07
2018-06-05T16:21:26.875Z,6.20
2018-06-05T16:23:54.671Z,5.33
2018-06-05T16:26:22.518Z,5.50
2018-06-05T16:28:50.344Z,5.23
2018-06-05T16:31:18.133Z,6.37
2018-06-05T16:33:46.247Z,5.50
2018-06-05T16:36:14.079Z,5.83
2018-06-05T16:38:41.938Z,4.97
2018-06-05T16:41:09.930Z,4.93
2018-06-05T16:43:38.250Z,5.10
2018-06-05T16:46:06.086Z,5.00
2018-06-05T16:48:34.046Z,4.33
2018-06-05T16:51:01.911Z,4.40
2018-06-05T16:53:30.071Z,4.93
2018-06-05T16:55:57.957Z,5.03
2018-06-05T16:58:25.806Z,4.80
2018-06-05T17:00:53.601Z,5.17
2018-06-05T17:03:21.386Z,4.90
2018-06-05T17:05:49.187Z,5.30
2018-06-05T17:08:17.019Z,4.37
2018-06-05T17:10:46.424Z,4.40
2018-06-05T17:13:14.307Z,5.13
2018-06-05T17:15:42.998Z,5.40
2018-06-05T17:18:11.218Z,5.37
2018-06-05T17:20:40.280Z,4.80
2018-06-05T17:23:08.937Z,5.30
2018-06-05T17:25:37.548Z,5.13
2018-06-05T17:28:05.523Z,4.50
2018-06-05T17:30:33.374Z,4.40
2018-06-05T17:33:01.199Z,5.30
2018-06-05T17:35:28.991Z,4.53
2018-06-05T17:37:56.818Z,4.50
2018-06-05T17:40:24.700Z,4.37
2018-06-05T17:42:52.475Z,4.73
2018-06-05T17:45:20.265Z,4.33
2018-06-05T17:47:48.110Z,4.43
2018-06-05T17:50:15.963Z,5.07
2018-06-05T17:52:43.762Z,4.57
2018-06-05T17:55:11.556Z,5.13
2018-06-05T17:57:39.383Z,5.07
2018-06-05T18:00:07.191Z,4.90
2018-06-05T18:02:35.015Z,4.97
2018-06-05T18:05:11.446Z,5.03
2018-06-05T18:07:48.090Z,4.93
2018-06-05T18:10:16.297Z,5.00
2018-06-05T18:12:44.216Z,4.50
2018-06-05T18:15:12.068Z,5.30
2018-06-05T18:17:40.634Z,5.00
2018-06-05T18:20:08.429Z,4.67
2018-06-05T18:22:36.914Z,4.63
2018-06-05T18:25:04.752Z,5.10
2018-06-05T18:27:32.586Z,4.97
2018-06-05T18:30:01.396Z,4.90
2018-06-05T18:32:30.218Z,4.80
2018-06-05T18:34:58.209Z,4.67
2018-06-05T18:37:26.078Z,4.73
2018-06-05T18:39:53.854Z,5.20
2018-06-05T18:42:21.677Z,4.43
2018-06-05T18:44:49.474Z,5.43
2018-06-05T18:47:17.286Z,5.60
2018-06-05T18:49:45.116Z,5.37
2018-06-05T18:52:12.939Z,5.00
2018-06-05T18:54:40.759Z,5.73
2018-06-05T18:57:08.594Z,6.80
2018-06-05T18:59:36.427Z,5.90
2018-06-05T19:02:04.246Z,6.33
2018-06-05T19:04:32.066Z,6.30
2018-06-05T19:06:59.875Z,5.30
2018-06-05T19:09:27.716Z,6.10
2018-06-05T19:11:55.563Z,6.03
2018-06-05T19:14:23.426Z,6.53
2018-06-05T19:16:51.246Z,6.60
2018-06-05T19:19:19.083Z,7.40
2018-06-05T19:21:46.906Z,6.87
2018-06-05T19:24:14.780Z,6.43
2018-06-05T19:26:42.569Z,7.20
2018-06-05T19:29:10.425Z,6.90
2018-06-05T19:31:38.219Z,7.40
2018-06-05T19:34:06.034Z,7.40
2018-06-05T19:36:33.905Z,8.13
2018-06-05T19:39:01.711Z,7.13
2018-06-05T19:41:29.510Z,7.97
2018-06-05T19:43:57.355Z,6.47
2018-06-05T19:46:25.194Z,7.27
2018-06-05T19:48:52.982Z,7.30
2018-06-05T19:51:20.783Z,6.97
2018-06-05T19:53:48.654Z,7.33
2018-06-05T19:56:16.437Z,8.53
2018-06-05T19:58:44.268Z,8.93
2018-06-05T20:01:12.078Z,7.30
2018-06-05T20:03:39.904Z,8.50
2018-06-05T20:06:07.730Z,8.73
2018-06-05T20:08:35.546Z,8.10
2018-06-05T20:11:03.342Z,7.87
2018-06-05T20:13:31.176Z,9.33
2018-06-05T20:15:59.016Z,8.57
2018-06-05T20:18:26.825Z,7.77
2018-06-05T20:20:54.651Z,8.73
2018-06-05T20:23:22.447Z,8.50
2018-06-05T20:25:50.296Z,8.60
2018-06-05T20:28:18.098Z,8.10
2018-06-05T20:30:45.974Z,8.00
2018-06-05T20:33:13.799Z,8.50
2018-06-05T20:35:41.599Z,9.03
2018-06-05T20:38:09.498Z,10.00
2018-06-05T20:40:37.404Z,9.80
2018-06-05T20:43:05.215Z,10.20
2018-06-05T20:45:33.032Z,9.23
2018-06-05T20:48:00.876Z,9.63
2018-06-05T20:50:28.738Z,9.40
2018-06-05T20:52:56.566Z,9.33
2018-06-05T20:55:24.375Z,10.87
2018-06-05T20:57:52.223Z,10.03
2018-06-05T21:00:20.036Z,10.00
2018-06-05T21:02:47.918Z,9.50
2018-06-05T21:05:15.713Z,10.93
2018-06-05T21:07:43.535Z,11.13
2018-06-05T21:10:11.381Z,10.77
2018-06-05T21:12:39.235Z,10.60
2018-06-05T21:15:07.082Z,13.13
2018-06-05T21:17:34.898Z,11.10
2018-06-05T21:20:02.747Z,11.27
2018-06-05T21:22:30.562Z,12.67
2018-06-05T21:24:58.404Z,11.87
2018-06-05T21:27:26.216Z,12.90
2018-06-05T21:29:54.055Z,11.53
2018-06-05T21:32:21.879Z,12.67
2018-06-05T21:34:49.714Z,13.57
2018-06-05T21:37:17.527Z,13.53
2018-06-05T21:39:45.362Z,14.17
2018-06-05T21:42:13.167Z,13.50
2018-06-05T21:44:40.992Z,13.17
2018-06-05T21:47:08.800Z,13.83
2018-06-05T21:49:36.631Z,16.17
2018-06-05T21:52:04.447Z,15.73
2018-06-05T21:54:32.274Z,15.07
2018-06-05T21:57:00.080Z,14.70
2018-06-05T21:59:27.919Z,15.50
2018-06-05T22:01:55.726Z,15.50
2018-06-05T22:04:23.534Z,16.20
2018-06-05T22:06:51.367Z,15.53
2018-06-05T22:09:19.199Z,16.33
2018-06-05T22:11:47.034Z,17.03
2018-06-05T22:14:14.878Z,17.43
2018-06-05T22:16:42.706Z,18.10
2018-06-05T22:19:10.614Z,17.77
2018-06-05T22:21:38.432Z,18.83
2018-06-05T22:24:06.260Z,17.70
2018-06-05T22:26:34.094Z,16.27
2018-06-05T22:29:01.902Z,18.43
2018-06-05T22:31:29.734Z,18.40
2018-06-05T22:33:57.559Z,18.37
2018-06-05T22:36:25.426Z,17.60
2018-06-05T22:38:53.249Z,18.63
2018-06-05T22:41:21.081Z,17.30
2018-06-05T22:43:48.919Z,17.70
2018-06-05T22:46:16.747Z,19.77
2018-06-05T22:48:44.558Z,17.57
2018-06-05T22:51:12.393Z,18.07
2018-06-05T22:53:40.399Z,17.83
2018-06-05T22:56:08.232Z,17.17
2018-06-05T22:58:36.049Z,17.27
2018-06-05T23:01:03.883Z,17.20
2018-06-05T23:03:31.690Z,19.50
2018-06-05T23:05:59.496Z,18.70
2018-06-05T23:08:27.318Z,20.37
2018-06-05T23:10:55.123Z,18.50
2018-06-05T23:13:22.949Z,18.47
2018-06-05T23:15:50.755Z,19.20
2018-06-05T23:18:18.598Z,18.40
2018-06-05T23:20:46.419Z,18.00
2018-06-05T23:23:14.239Z,18.57
2018-06-05T23:25:42.087Z,17.43
2018-06-05T23:28:09.887Z,17.20
2018-06-05T23:30:37.735Z,17.30
2018-06-05T23:33:05.569Z,17.80
2018-06-05T23:35:33.376Z,18.03
2018-06-05T23:38:01.219Z,18.20
2018-06-05T23:40:29.026Z,18.40
2018-06-05T23:42:56.856Z,19.60
2018-06-05T23:45:24.667Z,20.27
2018-06-05T23:47:52.649Z,19.00
2018-06-05T23:50:20.506Z,19.00
2018-06-05T23:52:48.343Z,18.53
2018-06-05T23:55:16.170Z,19.10
2018-06-05T23:57:43.994Z,19.87
